createdAt,value
2018-04-13T00:00:05.232Z,0.00
2018-04-13T00:01:05.240Z,0.00
2018-04-13T00:02:05.197Z,0.00
2018-04-13T00:03:05.207Z,0.00
2018-04-13T00:04:05.221Z,0.00
2018-04-13T00:05:05.184Z,0.00
2018-04-13T00:06:05.131Z,0.00
2018-04-13T00:07:05.112Z,0.00
2018-04-13T00:08:05.096Z,0.00
2018-04-13T00:09:05.125Z,0.00
2018-04-13T00:10:05.091Z,0.00
2018-04-13T00:11:05.055Z,0.00
2018-04-13T00:12:05.064Z,0.00
2018-04-13T00:13:05.039Z,0.00
2018-04-13T00:14:05.037Z,0.00
2018-04-13T00:15:05.042Z,0.00
2018-04-13T00:16:04.978Z,0.00
2018-04-13T00:17:04.977Z,0.00
2018-04-13T00:18:04.990Z,0.00
2018-04-13T00:19:04.942Z,0.00
2018-04-13T00:20:04.957Z,0.00
2018-04-13T00:21:04.905Z,0.00
2018-04-13T00:22:04.925Z,0.00
2018-04-13T00:23:04.874Z,0.00
2018-04-13T00:24:04.878Z,0.00
2018-04-13T00:25:04.840Z,0.00
2018-04-13T00:26:04.825Z,0.00
2018-04-13T00:27:04.813Z,0.00
2018-04-13T00:28:04.818Z,0.00
2018-04-13T00:29:04.830Z,0.00
2018-04-13T00:30:04.768Z,0.00
2018-04-13T00:31:04.766Z,0.00
2018-04-13T00:32:04.744Z,0.00
2018-04-13T00:33:04.733Z,0.00
2018-04-13T00:34:04.707Z,0.00
2018-04-13T00:35:04.695Z,0.00
2018-04-13T00:36:04.706Z,0.00
2018-04-13T00:37:04.669Z,0.00
2018-04-13T00:38:04.649Z,0.00
2018-04-13T00:39:04.637Z,0.00
2018-04-13T00:40:04.617Z,0.00
2018-04-13T00:41:04.610Z,0.00
2018-04-13T00:42:04.603Z,0.00
2018-04-13T00:43:04.612Z,0.00
2018-04-13T00:44:04.565Z,0.00
2018-04-13T00:45:04.586Z,0.00
2018-04-13T00:46:04.537Z,0.00
2018-04-13T00:47:04.538Z,0.00
2018-04-13T00:48:04.513Z,0.00
2018-04-13T00:49:04.497Z,0.00
2018-04-13T00:50:04.465Z,0.00
2018-04-13T00:51:04.468Z,0.00
2018-04-13T00:52:04.446Z,0.00
2018-04-13T00:53:04.415Z,0.00
2018-04-13T00:54:04.428Z,0.00
2018-04-13T00:55:04.391Z,0.00
2018-04-13T00:56:04.391Z,0.00
2018-04-13T00:57:04.369Z,0.00
2018-04-13T00:58:04.352Z,0.00
2018-04-13T00:59:04.382Z,0.00
2018-04-13T01:00:04.317Z,0.00
2018-04-13T01:01:04.321Z,0.00
2018-04-13T01:02:04.316Z,0.00
2018-04-13T01:03:04.266Z,0.00
2018-04-13T01:04:04.261Z,0.00
2018-04-13T01:05:04.262Z,0.00
2018-04-13T01:06:04.225Z,0.00
2018-04-13T01:07:04.229Z,0.00
2018-04-13T01:08:04.185Z,0.00
2018-04-13T01:09:04.179Z,0.00
2018-04-13T01:10:04.187Z,0.00
2018-04-13T01:11:04.161Z,0.00
2018-04-13T01:12:04.131Z,0.00
2018-04-13T01:13:04.116Z,0.00
2018-04-13T01:14:04.098Z,0.00
2018-04-13T01:15:04.084Z,0.00
2018-04-13T01:16:04.092Z,0.00
2018-04-13T01:17:04.056Z,0.00
2018-04-13T01:18:04.064Z,0.00
2018-04-13T01:19:04.028Z,0.00
2018-04-13T01:20:04.014Z,0.00
2018-04-13T01:21:03.985Z,0.00
2018-04-13T01:22:03.969Z,0.00
2018-04-13T01:23:03.955Z,0.00
2018-04-13T01:24:03.969Z,0.00
2018-04-13T01:25:03.953Z,0.00
2018-04-13T01:26:03.917Z,0.00
2018-04-13T01:27:03.898Z,0.00
2018-04-13T01:28:03.959Z,0.00
2018-04-13T01:29:03.862Z,0.00
2018-04-13T01:30:03.882Z,0.00
2018-04-13T01:31:04.582Z,0.00
2018-04-13T01:32:03.824Z,0.00
2018-04-13T01:33:03.831Z,0.00
2018-04-13T01:34:03.808Z,0.00
2018-04-13T01:35:03.772Z,0.00
2018-04-13T01:36:03.777Z,0.00
2018-04-13T01:37:03.803Z,0.00
2018-04-13T01:38:03.813Z,0.00
2018-04-13T01:39:03.739Z,0.00
2018-04-13T01:40:03.695Z,0.00
2018-04-13T01:41:03.689Z,0.00
2018-04-13T01:42:04.597Z,0.00
2018-04-13T01:43:03.684Z,0.00
2018-04-13T01:44:03.642Z,0.00
2018-04-13T01:45:03.618Z,0.00
2018-04-13T01:46:03.619Z,0.00
2018-04-13T01:47:03.621Z,0.00
2018-04-13T01:48:03.578Z,0.00
2018-04-13T01:49:03.588Z,0.00
2018-04-13T01:50:03.541Z,0.00
2018-04-13T01:51:03.538Z,0.00
2018-04-13T01:52:03.516Z,0.00
2018-04-13T01:53:03.495Z,0.00
2018-04-13T01:54:03.488Z,0.00
2018-04-13T01:55:03.464Z,0.00
2018-04-13T01:56:03.514Z,0.00
2018-04-13T01:57:03.454Z,0.00
2018-04-13T01:58:03.577Z,0.00
2018-04-13T01:59:03.416Z,0.00
2018-04-13T02:00:03.393Z,0.00
2018-04-13T02:01:03.379Z,0.00
2018-04-13T02:02:03.364Z,0.00
2018-04-13T02:03:03.348Z,0.00
2018-04-13T02:04:03.341Z,0.00
2018-04-13T02:05:03.324Z,0.00
2018-04-13T02:06:03.293Z,0.00
2018-04-13T02:07:03.282Z,0.00
2018-04-13T02:08:03.264Z,0.00
2018-04-13T02:09:03.269Z,0.00
2018-04-13T02:10:03.236Z,0.00
2018-04-13T02:11:03.216Z,0.00
2018-04-13T02:12:03.213Z,0.00
2018-04-13T02:13:03.240Z,0.00
2018-04-13T02:14:03.193Z,0.00
2018-04-13T02:15:03.160Z,0.00
2018-04-13T02:16:03.143Z,0.00
2018-04-13T02:17:03.129Z,0.00
2018-04-13T02:18:03.115Z,0.00
2018-04-13T02:19:03.097Z,0.00
2018-04-13T02:20:03.104Z,0.00
2018-04-13T02:21:03.074Z,0.00
2018-04-13T02:22:03.053Z,0.00
2018-04-13T02:23:03.044Z,0.00
2018-04-13T02:24:03.028Z,0.00
2018-04-13T02:25:03.028Z,0.00
2018-04-13T02:26:03.000Z,0.00
2018-04-13T02:27:02.976Z,0.00
2018-04-13T02:28:02.952Z,0.00
2018-04-13T02:29:02.940Z,0.00
2018-04-13T02:30:02.934Z,0.00
2018-04-13T02:31:02.929Z,0.00
2018-04-13T02:32:02.904Z,0.00
2018-04-13T02:33:02.881Z,0.00
2018-04-13T02:34:02.859Z,0.00
2018-04-13T02:35:02.845Z,0.00
2018-04-13T02:36:02.842Z,0.00
2018-04-13T02:37:02.820Z,0.00
2018-04-13T02:38:02.809Z,0.00
2018-04-13T02:39:02.781Z,0.00
2018-04-13T02:40:02.778Z,0.00
2018-04-13T02:41:02.757Z,0.00
2018-04-13T02:42:02.776Z,0.00
2018-04-13T02:43:02.724Z,0.00
2018-04-13T02:44:02.708Z,0.00
2018-04-13T02:45:02.706Z,0.00
2018-04-13T02:46:02.710Z,0.00
2018-04-13T02:47:02.656Z,0.00
2018-04-13T02:48:02.642Z,0.00
2018-04-13T02:49:02.632Z,0.00
2018-04-13T02:50:02.669Z,0.00
2018-04-13T02:51:02.596Z,0.00
2018-04-13T02:52:02.576Z,0.00
2018-04-13T02:53:02.565Z,0.00
2018-04-13T02:54:02.545Z,0.00
2018-04-13T02:55:02.542Z,0.00
2018-04-13T02:56:02.518Z,0.00
2018-04-13T02:57:02.533Z,0.00
2018-04-13T02:58:02.495Z,0.00
2018-04-13T02:59:02.478Z,0.00
2018-04-13T03:00:02.450Z,0.00
2018-04-13T03:01:02.433Z,0.00
2018-04-13T03:02:02.419Z,0.00
2018-04-13T03:03:02.413Z,0.00
2018-04-13T03:04:02.391Z,0.00
2018-04-13T03:05:02.383Z,0.00
2018-04-13T03:06:02.355Z,0.00
2018-04-13T03:07:02.348Z,0.00
2018-04-13T03:08:02.345Z,0.00
2018-04-13T03:09:02.331Z,0.00
2018-04-13T03:10:02.295Z,0.00
2018-04-13T03:11:02.277Z,0.00
2018-04-13T03:12:02.269Z,0.00
2018-04-13T03:13:02.273Z,0.00
2018-04-13T03:14:02.232Z,0.00
2018-04-13T03:15:02.212Z,0.00
2018-04-13T03:16:02.200Z,0.00
2018-04-13T03:17:02.197Z,0.00
2018-04-13T03:18:02.167Z,0.00
2018-04-13T03:19:02.148Z,0.00
2018-04-13T03:20:02.140Z,0.00
2018-04-13T03:21:02.126Z,0.00
2018-04-13T03:22:02.108Z,0.00
2018-04-13T03:23:02.094Z,0.00
2018-04-13T03:24:02.072Z,0.00
2018-04-13T03:25:02.054Z,0.00
2018-04-13T03:26:02.054Z,0.00
2018-04-13T03:27:02.022Z,0.00
2018-04-13T03:28:02.006Z,0.00
2018-04-13T03:29:01.994Z,0.00
2018-04-13T03:30:01.980Z,0.00
2018-04-13T03:31:01.982Z,0.00
2018-04-13T03:32:01.946Z,0.00
2018-04-13T03:33:01.938Z,0.00
2018-04-13T03:34:01.912Z,0.00
2018-04-13T03:35:01.925Z,0.00
2018-04-13T03:36:01.890Z,0.00
2018-04-13T03:37:01.862Z,0.00
2018-04-13T03:38:01.867Z,0.00
2018-04-13T03:39:01.855Z,0.00
2018-04-13T03:40:01.822Z,0.00
2018-04-13T03:41:01.819Z,0.00
2018-04-13T03:42:01.784Z,0.00
2018-04-13T03:43:01.775Z,0.00
2018-04-13T03:44:01.761Z,0.00
2018-04-13T03:45:01.774Z,0.00
2018-04-13T03:46:01.774Z,0.00
2018-04-13T03:47:01.726Z,0.00
2018-04-13T03:48:01.697Z,0.00
2018-04-13T03:49:01.707Z,0.00
2018-04-13T03:50:01.661Z,0.00
2018-04-13T03:51:01.646Z,0.00
2018-04-13T03:52:01.637Z,0.00
2018-04-13T03:53:01.624Z,0.00
2018-04-13T03:54:01.619Z,0.00
2018-04-13T03:55:01.582Z,0.00
2018-04-13T03:56:01.580Z,0.00
2018-04-13T03:57:01.550Z,0.00
2018-04-13T03:58:01.558Z,0.00
2018-04-13T03:59:01.520Z,0.00
2018-04-13T04:00:01.496Z,0.00
2018-04-13T04:01:01.498Z,0.00
2018-04-13T04:02:01.482Z,0.00
2018-04-13T04:03:01.455Z,0.00
2018-04-13T04:04:01.433Z,0.00
2018-04-13T04:05:01.453Z,0.00
2018-04-13T04:06:01.444Z,0.00
2018-04-13T04:07:01.396Z,4.00
2018-04-13T04:08:01.373Z,4.00
2018-04-13T04:09:01.367Z,4.00
2018-04-13T04:10:01.346Z,0.00
2018-04-13T04:11:01.342Z,4.00
2018-04-13T04:12:01.328Z,4.00
2018-04-13T04:13:01.348Z,4.00
2018-04-13T04:14:01.280Z,8.00
2018-04-13T04:15:01.269Z,8.00
2018-04-13T04:16:01.292Z,8.00
2018-04-13T04:17:01.291Z,12.00
2018-04-13T04:18:01.237Z,12.00
2018-04-13T04:19:01.264Z,16.00
2018-04-13T04:20:01.191Z,20.00
2018-04-13T04:21:01.181Z,20.00
2018-04-13T04:22:01.252Z,24.00
2018-04-13T04:23:01.142Z,28.00
2018-04-13T04:24:01.137Z,28.00
2018-04-13T04:25:01.135Z,36.00
2018-04-13T04:26:01.153Z,40.00
2018-04-13T04:27:01.089Z,44.00
2018-04-13T04:28:01.052Z,48.00
2018-04-13T04:29:01.061Z,56.00
2018-04-13T04:30:01.031Z,64.00
2018-04-13T04:31:01.003Z,76.00
2018-04-13T04:32:00.998Z,80.00
2018-04-13T04:33:00.978Z,92.00
2018-04-13T04:34:00.972Z,100.00
2018-04-13T04:35:00.942Z,116.00
2018-04-13T04:36:00.937Z,128.00
2018-04-13T04:37:00.917Z,140.00
2018-04-13T04:38:00.951Z,156.00
2018-04-13T04:39:00.874Z,172.00
2018-04-13T04:40:00.940Z,184.00
2018-04-13T04:41:00.851Z,208.00
2018-04-13T04:42:00.841Z,236.00
2018-04-13T04:43:00.831Z,264.00
2018-04-13T04:44:00.829Z,296.00
2018-04-13T04:45:00.789Z,328.00
2018-04-13T04:46:00.886Z,360.00
2018-04-13T04:47:00.784Z,392.00
2018-04-13T04:48:00.742Z,428.00
2018-04-13T04:49:00.739Z,468.00
2018-04-13T04:50:00.715Z,512.00
2018-04-13T04:51:00.703Z,552.00
2018-04-13T04:52:00.699Z,596.00
2018-04-13T04:53:00.725Z,636.00
2018-04-13T04:54:00.645Z,680.00
2018-04-13T04:55:00.651Z,716.00
2018-04-13T04:56:00.635Z,736.00
2018-04-13T04:57:00.617Z,744.00
2018-04-13T04:58:00.586Z,752.00
2018-04-13T04:59:00.576Z,772.00
2018-04-13T05:00:00.548Z,796.00
2018-04-13T05:01:00.544Z,816.00
2018-04-13T05:02:00.565Z,848.00
2018-04-13T05:03:00.505Z,888.00
2018-04-13T05:04:00.492Z,944.00
2018-04-13T05:05:00.506Z,1020.00
2018-04-13T05:06:00.472Z,1100.00
2018-04-13T05:07:00.461Z,1176.00
2018-04-13T05:08:00.432Z,1264.00
2018-04-13T05:09:00.425Z,1344.00
2018-04-13T05:10:00.410Z,1352.00
2018-04-13T05:11:00.397Z,1328.00
2018-04-13T05:12:00.395Z,1312.00
2018-04-13T05:13:00.380Z,1324.00
2018-04-13T05:14:00.324Z,1356.00
2018-04-13T05:15:00.328Z,1396.00
2018-04-13T05:16:00.291Z,1448.00
2018-04-13T05:17:00.271Z,1496.00
2018-04-13T05:18:00.264Z,1528.00
2018-04-13T05:19:00.282Z,1560.00
2018-04-13T05:20:00.249Z,1600.00
2018-04-13T05:21:00.230Z,1648.00
2018-04-13T05:22:00.258Z,1684.00
2018-04-13T05:23:00.200Z,1700.00
2018-04-13T05:24:00.199Z,1724.00
2018-04-13T05:25:00.150Z,1752.00
2018-04-13T05:26:00.174Z,1788.00
2018-04-13T05:27:00.126Z,1824.00
2018-04-13T05:28:00.139Z,1864.00
2018-04-13T05:29:00.089Z,1900.00
2018-04-13T05:30:00.072Z,1916.00
2018-04-13T05:31:00.052Z,1932.00
2018-04-13T05:32:00.049Z,1940.00
2018-04-13T05:33:00.050Z,1944.00
2018-04-13T05:34:00.036Z,1960.00
2018-04-13T05:35:00.009Z,1996.00
2018-04-13T05:35:59.982Z,2072.00
2018-04-13T05:36:59.979Z,2156.00
2018-04-13T05:37:59.960Z,2224.00
2018-04-13T05:38:59.930Z,2292.00
2018-04-13T05:39:59.926Z,2376.00
2018-04-13T05:40:59.916Z,2460.00
2018-04-13T05:41:59.907Z,2540.00
2018-04-13T05:42:59.884Z,2616.00
2018-04-13T05:43:59.852Z,2712.00
2018-04-13T05:44:59.838Z,2864.00
2018-04-13T05:45:59.861Z,3112.00
2018-04-13T05:46:59.795Z,3436.00
2018-04-13T05:47:59.804Z,3732.00
2018-04-13T05:48:59.771Z,3948.00
2018-04-13T05:49:59.833Z,4076.00
2018-04-13T05:50:59.759Z,4084.00
2018-04-13T05:51:59.752Z,3992.00
2018-04-13T05:52:59.738Z,3916.00
2018-04-13T05:53:59.741Z,3892.00
2018-04-13T05:54:59.697Z,3900.00
2018-04-13T05:55:59.724Z,3960.00
2018-04-13T05:56:59.670Z,4044.00
2018-04-13T05:57:59.629Z,4180.00
2018-04-13T05:58:59.629Z,4332.00
2018-04-13T05:59:59.617Z,4472.00
2018-04-13T06:00:59.582Z,4600.00
2018-04-13T06:01:59.589Z,4728.00
2018-04-13T06:02:59.561Z,4852.00
2018-04-13T06:03:59.536Z,4972.00
2018-04-13T06:04:59.558Z,5160.00
2018-04-13T06:05:59.551Z,5436.00
2018-04-13T06:06:59.519Z,5744.00
2018-04-13T06:07:59.488Z,6076.00
2018-04-13T06:08:59.504Z,6308.00
2018-04-13T06:09:59.477Z,6408.00
2018-04-13T06:10:59.426Z,6420.00
2018-04-13T06:11:59.459Z,6440.00
2018-04-13T06:13:02.425Z,6488.00
2018-04-13T06:13:59.379Z,6552.00
2018-04-13T06:14:59.392Z,6744.00
2018-04-13T06:15:59.361Z,6980.00
2018-04-13T06:16:59.337Z,7144.00
2018-04-13T06:17:59.360Z,7240.00
2018-04-13T06:18:59.302Z,7312.00
2018-04-13T06:19:59.291Z,7260.00
2018-04-13T06:20:59.292Z,7048.00
2018-04-13T06:21:59.271Z,6736.00
2018-04-13T06:22:59.246Z,6404.00
2018-04-13T06:23:59.236Z,6096.00
2018-04-13T06:24:59.239Z,5836.00
2018-04-13T06:25:59.231Z,5588.00
2018-04-13T06:26:59.231Z,5500.00
2018-04-13T06:27:59.197Z,5656.00
2018-04-13T06:28:59.156Z,6096.00
2018-04-13T06:29:59.182Z,6824.00
2018-04-13T06:30:59.134Z,7660.00
2018-04-13T06:31:59.226Z,8436.00
2018-04-13T06:32:59.137Z,9076.00
2018-04-13T06:33:59.142Z,9456.00
2018-04-13T06:34:59.061Z,9336.00
2018-04-13T06:35:59.064Z,8704.00
2018-04-13T06:36:59.048Z,7556.00
2018-04-13T06:37:59.063Z,6072.00
2018-04-13T06:38:59.005Z,4668.00
2018-04-13T06:39:58.996Z,3632.00
2018-04-13T06:40:59.010Z,2964.00
2018-04-13T06:41:58.991Z,2652.00
2018-04-13T06:42:58.992Z,2664.00
2018-04-13T06:43:58.963Z,2952.00
2018-04-13T06:44:58.928Z,3480.00
2018-04-13T06:45:58.919Z,4172.00
2018-04-13T06:46:58.920Z,4656.00
2018-04-13T06:47:58.904Z,4788.00
2018-04-13T06:48:58.908Z,4724.00
2018-04-13T06:49:58.863Z,4636.00
2018-04-13T06:50:58.845Z,4592.00
2018-04-13T06:51:58.830Z,4624.00
2018-04-13T06:52:58.821Z,4764.00
2018-04-13T06:53:58.798Z,4988.00
2018-04-13T06:54:58.790Z,5272.00
2018-04-13T06:55:58.762Z,5588.00
2018-04-13T06:56:58.766Z,5936.00
2018-04-13T06:57:58.733Z,6344.00
2018-04-13T06:58:58.722Z,6844.00
2018-04-13T06:59:58.771Z,7452.00
2018-04-13T07:00:58.720Z,8020.00
2018-04-13T07:01:58.683Z,8508.00
2018-04-13T07:02:58.666Z,8868.00
2018-04-13T07:03:58.678Z,9092.00
2018-04-13T07:04:58.647Z,9264.00
2018-04-13T07:05:58.623Z,9388.00
2018-04-13T07:06:58.611Z,9388.00
2018-04-13T07:07:58.634Z,9324.00
2018-04-13T07:08:58.592Z,9220.00
2018-04-13T07:09:58.633Z,9156.00
2018-04-13T07:10:58.591Z,9136.00
2018-04-13T07:11:58.538Z,9204.00
2018-04-13T07:12:58.559Z,9332.00
2018-04-13T07:13:58.556Z,9584.00
2018-04-13T07:14:58.497Z,9800.00
2018-04-13T07:15:58.489Z,10032.00
2018-04-13T07:16:58.488Z,10256.00
2018-04-13T07:17:58.486Z,10288.00
2018-04-13T07:18:58.468Z,10212.00
2018-04-13T07:19:58.429Z,10144.00
2018-04-13T07:20:58.447Z,10144.00
2018-04-13T07:21:58.413Z,9988.00
2018-04-13T07:22:58.376Z,9896.00
2018-04-13T07:23:58.412Z,10000.00
2018-04-13T07:24:58.384Z,9884.00
2018-04-13T07:25:58.340Z,9584.00
2018-04-13T07:26:58.339Z,9324.00
2018-04-13T07:27:58.340Z,9264.00
2018-04-13T07:28:58.324Z,9016.00
2018-04-13T07:29:58.332Z,8688.00
2018-04-13T07:30:58.303Z,8484.00
2018-04-13T07:31:58.660Z,8248.00
2018-04-13T07:32:58.247Z,8084.00
2018-04-13T07:33:58.272Z,8040.00
2018-04-13T07:34:58.239Z,8172.00
2018-04-13T07:35:58.270Z,8024.00
2018-04-13T07:36:58.202Z,7940.00
2018-04-13T07:37:58.226Z,7988.00
2018-04-13T07:38:58.196Z,8240.00
2018-04-13T07:39:58.183Z,8344.00
2018-04-13T07:40:58.127Z,8388.00
2018-04-13T07:41:58.175Z,8388.00
2018-04-13T07:42:58.124Z,8572.00
2018-04-13T07:43:58.106Z,8824.00
2018-04-13T07:44:58.113Z,9024.00
2018-04-13T07:45:58.105Z,9028.00
2018-04-13T07:46:58.085Z,9148.00
2018-04-13T07:47:58.080Z,9172.00
2018-04-13T07:48:58.048Z,9156.00
2018-04-13T07:49:58.037Z,9152.00
2018-04-13T07:50:58.175Z,9092.00
2018-04-13T07:51:58.010Z,9116.00
2018-04-13T07:52:58.049Z,9132.00
2018-04-13T07:53:57.999Z,9152.00
2018-04-13T07:54:57.962Z,9240.00
2018-04-13T07:55:57.989Z,9404.00
2018-04-13T07:56:58.031Z,9584.00
2018-04-13T07:57:57.917Z,9772.00
2018-04-13T07:58:57.905Z,9960.00
2018-04-13T07:59:57.939Z,10100.00
2018-04-13T08:00:57.888Z,10292.00
2018-04-13T08:01:57.875Z,10508.00
2018-04-13T08:02:58.022Z,10652.00
2018-04-13T08:03:57.849Z,10848.00
2018-04-13T08:04:57.875Z,11000.00
2018-04-13T08:05:57.799Z,11064.00
2018-04-13T08:06:57.839Z,11220.00
2018-04-13T08:07:57.805Z,11296.00
2018-04-13T08:08:57.787Z,11380.00
2018-04-13T08:09:57.781Z,11488.00
2018-04-13T08:10:57.772Z,11592.00
2018-04-13T08:11:57.710Z,11708.00
2018-04-13T08:13:00.737Z,11844.00
2018-04-13T08:13:57.693Z,11804.00
2018-04-13T08:14:57.698Z,11768.00
2018-04-13T08:15:57.690Z,11728.00
2018-04-13T08:16:57.733Z,11648.00
2018-04-13T08:17:57.666Z,11616.00
2018-04-13T08:18:57.637Z,11584.00
2018-04-13T08:19:57.664Z,11592.00
2018-04-13T08:20:57.620Z,11632.00
2018-04-13T08:21:57.596Z,11688.00
2018-04-13T08:22:57.593Z,11756.00
2018-04-13T08:23:57.625Z,11848.00
2018-04-13T08:24:57.553Z,11872.00
2018-04-13T08:25:57.551Z,11932.00
2018-04-13T08:26:57.539Z,11888.00
2018-04-13T08:27:57.607Z,11736.00
2018-04-13T08:28:57.538Z,11804.00
2018-04-13T08:29:57.493Z,11644.00
2018-04-13T08:30:57.501Z,11488.00
2018-04-13T08:31:57.498Z,11304.00
2018-04-13T08:32:57.462Z,11064.00
2018-04-13T08:33:57.464Z,10912.00
2018-04-13T08:34:57.435Z,10708.00
2018-04-13T08:35:57.440Z,10860.00
2018-04-13T08:36:57.397Z,10928.00
2018-04-13T08:37:57.380Z,10764.00
2018-04-13T08:38:57.387Z,10776.00
2018-04-13T08:39:57.366Z,10584.00
2018-04-13T08:40:57.354Z,10416.00
2018-04-13T08:41:57.399Z,10220.00
2018-04-13T08:42:57.373Z,10096.00
2018-04-13T08:43:57.351Z,9948.00
2018-04-13T08:44:57.288Z,9808.00
2018-04-13T08:45:57.314Z,9700.00
2018-04-13T08:46:57.275Z,9564.00
2018-04-13T08:47:57.261Z,9420.00
2018-04-13T08:48:57.365Z,9220.00
2018-04-13T08:49:57.260Z,9028.00
2018-04-13T08:50:57.527Z,8884.00
2018-04-13T08:51:57.222Z,8828.00
2018-04-13T08:52:57.248Z,8784.00
2018-04-13T08:53:57.247Z,8756.00
2018-04-13T08:54:57.215Z,8792.00
2018-04-13T08:55:57.171Z,8816.00
2018-04-13T08:56:57.181Z,8840.00
2018-04-13T08:57:57.238Z,8804.00
2018-04-13T08:58:57.134Z,8664.00
2018-04-13T08:59:57.153Z,8420.00
2018-04-13T09:00:57.115Z,8172.00
2018-04-13T09:01:57.123Z,8036.00
2018-04-13T09:02:57.140Z,8052.00
2018-04-13T09:03:57.084Z,7948.00
2018-04-13T09:04:57.043Z,8216.00
2018-04-13T09:05:57.028Z,8160.00
2018-04-13T09:06:57.069Z,8016.00
2018-04-13T09:07:56.997Z,7924.00
2018-04-13T09:08:57.059Z,8004.00
2018-04-13T09:09:57.171Z,8256.00
2018-04-13T09:10:56.973Z,8616.00
2018-04-13T09:11:57.059Z,9100.00
2018-04-13T09:12:57.333Z,9676.00
2018-04-13T09:13:56.982Z,10284.00
2018-04-13T09:14:56.934Z,10904.00
2018-04-13T09:15:56.922Z,11476.00
2018-04-13T09:16:56.898Z,11948.00
2018-04-13T09:17:56.935Z,12348.00
2018-04-13T09:18:56.947Z,12720.00
2018-04-13T09:19:56.860Z,13084.00
2018-04-13T09:20:56.874Z,13352.00
2018-04-13T09:21:56.817Z,13500.00
2018-04-13T09:22:56.831Z,13600.00
2018-04-13T09:23:56.830Z,13796.00
2018-04-13T09:24:56.835Z,14248.00
2018-04-13T09:25:56.791Z,14928.00
2018-04-13T09:26:56.799Z,15576.00
2018-04-13T09:27:56.840Z,15904.00
2018-04-13T09:28:56.794Z,16008.00
2018-04-13T09:29:56.749Z,15908.00
2018-04-13T09:30:56.724Z,15620.00
2018-04-13T09:31:56.742Z,15164.00
2018-04-13T09:32:56.723Z,14708.00
2018-04-13T09:33:56.687Z,14404.00
2018-04-13T09:34:56.667Z,14188.00
2018-04-13T09:35:56.656Z,14060.00
2018-04-13T09:36:56.667Z,13992.00
2018-04-13T09:37:56.652Z,13764.00
2018-04-13T09:38:56.625Z,13388.00
2018-04-13T09:39:56.636Z,12856.00
2018-04-13T09:40:56.751Z,12284.00
2018-04-13T09:41:56.623Z,11968.00
2018-04-13T09:42:56.608Z,11960.00
2018-04-13T09:43:56.599Z,11800.00
2018-04-13T09:44:56.571Z,11724.00
2018-04-13T09:45:56.538Z,11752.00
2018-04-13T09:46:56.621Z,11920.00
2018-04-13T09:47:56.508Z,12368.00
2018-04-13T09:48:56.592Z,13032.00
2018-04-13T09:49:56.512Z,13744.00
2018-04-13T09:50:56.547Z,14208.00
2018-04-13T09:51:56.492Z,14584.00
2018-04-13T09:52:56.494Z,14900.00
2018-04-13T09:53:56.448Z,15048.00
2018-04-13T09:54:56.451Z,14960.00
2018-04-13T09:55:56.422Z,15336.00
2018-04-13T09:56:56.418Z,15460.00
2018-04-13T09:57:56.416Z,15424.00
2018-04-13T09:58:56.388Z,15484.00
2018-04-13T09:59:56.402Z,15552.00
2018-04-13T10:00:56.383Z,15388.00
2018-04-13T10:01:56.427Z,15088.00
2018-04-13T10:02:56.358Z,14488.00
2018-04-13T10:03:56.386Z,13996.00
2018-04-13T10:04:56.512Z,14024.00
2018-04-13T10:05:56.373Z,13928.00
2018-04-13T10:06:56.327Z,14200.00
2018-04-13T10:07:56.333Z,14836.00
2018-04-13T10:08:56.323Z,14752.00
2018-04-13T10:09:56.373Z,14768.00
2018-04-13T10:10:56.262Z,14036.00
2018-04-13T10:11:56.282Z,13256.00
2018-04-13T10:12:56.255Z,12464.00
2018-04-13T10:13:56.229Z,11900.00
2018-04-13T10:14:56.226Z,11660.00
2018-04-13T10:15:56.262Z,11668.00
2018-04-13T10:16:56.289Z,11932.00
2018-04-13T10:17:56.187Z,12104.00
2018-04-13T10:18:56.188Z,12252.00
2018-04-13T10:19:56.178Z,12372.00
2018-04-13T10:20:56.142Z,12396.00
2018-04-13T10:21:56.161Z,12608.00
2018-04-13T10:22:56.127Z,12684.00
2018-04-13T10:23:56.195Z,12636.00
2018-04-13T10:24:56.139Z,12972.00
2018-04-13T10:25:56.081Z,12968.00
2018-04-13T10:26:56.169Z,13152.00
2018-04-13T10:27:56.166Z,12864.00
2018-04-13T10:28:56.107Z,12420.00
2018-04-13T10:29:56.085Z,12240.00
2018-04-13T10:30:56.081Z,12128.00
2018-04-13T10:31:56.066Z,11896.00
2018-04-13T10:32:56.087Z,11776.00
2018-04-13T10:33:56.011Z,11528.00
2018-04-13T10:34:55.991Z,11328.00
2018-04-13T10:35:56.006Z,11240.00
2018-04-13T10:36:55.978Z,11244.00
2018-04-13T10:37:55.982Z,11284.00
2018-04-13T10:38:55.964Z,11320.00
2018-04-13T10:39:56.201Z,11328.00
2018-04-13T10:40:55.996Z,11272.00
2018-04-13T10:41:56.044Z,11312.00
2018-04-13T10:42:55.910Z,11476.00
2018-04-13T10:43:55.970Z,11496.00
2018-04-13T10:44:55.892Z,11480.00
2018-04-13T10:45:55.874Z,11548.00
2018-04-13T10:46:55.913Z,11588.00
2018-04-13T10:47:55.832Z,11784.00
2018-04-13T10:48:55.984Z,12028.00
2018-04-13T10:49:55.834Z,12448.00
2018-04-13T10:50:55.828Z,12808.00
2018-04-13T10:51:55.903Z,13096.00
2018-04-13T10:52:55.813Z,13184.00
2018-04-13T10:53:55.760Z,13260.00
2018-04-13T10:54:55.790Z,13312.00
2018-04-13T10:55:55.756Z,13368.00
2018-04-13T10:56:55.790Z,13452.00
2018-04-13T10:57:55.758Z,13612.00
2018-04-13T10:58:55.734Z,13760.00
2018-04-13T10:59:55.751Z,13928.00
2018-04-13T11:00:55.843Z,14000.00
2018-04-13T11:01:55.691Z,14136.00
2018-04-13T11:02:55.719Z,14392.00
2018-04-13T11:03:55.656Z,14488.00
2018-04-13T11:04:55.658Z,14596.00
2018-04-13T11:05:55.704Z,14728.00
2018-04-13T11:06:55.643Z,14744.00
2018-04-13T11:07:55.645Z,14752.00
2018-04-13T11:08:55.646Z,14588.00
2018-04-13T11:09:55.620Z,14412.00
2018-04-13T11:10:55.583Z,14264.00
2018-04-13T11:11:55.633Z,14000.00
2018-04-13T11:12:55.672Z,13732.00
2018-04-13T11:13:55.594Z,13332.00
2018-04-13T11:14:55.589Z,12876.00
2018-04-13T11:15:55.547Z,12564.00
2018-04-13T11:16:55.530Z,12276.00
2018-04-13T11:17:55.547Z,12184.00
2018-04-13T11:18:55.526Z,12300.00
2018-04-13T11:19:55.504Z,12312.00
2018-04-13T11:20:55.486Z,12108.00
2018-04-13T11:21:55.515Z,11960.00
2018-04-13T11:22:55.467Z,11680.00
2018-04-13T11:23:55.432Z,11704.00
2018-04-13T11:24:55.445Z,11760.00
2018-04-13T11:25:55.453Z,12028.00
2018-04-13T11:26:55.426Z,12192.00
2018-04-13T11:27:55.395Z,12504.00
2018-04-13T11:28:55.396Z,12656.00
2018-04-13T11:29:55.390Z,12684.00
2018-04-13T11:30:55.415Z,12516.00
2018-04-13T11:31:55.339Z,12228.00
2018-04-13T11:32:55.368Z,12032.00
2018-04-13T11:33:55.346Z,11820.00
2018-04-13T11:34:55.322Z,11888.00
2018-04-13T11:35:55.365Z,11940.00
2018-04-13T11:36:55.323Z,11976.00
2018-04-13T11:37:55.300Z,11948.00
2018-04-13T11:38:55.282Z,12060.00
2018-04-13T11:39:55.336Z,11896.00
2018-04-13T11:40:55.263Z,11972.00
2018-04-13T11:41:55.253Z,11868.00
2018-04-13T11:42:55.355Z,11796.00
2018-04-13T11:43:55.298Z,11536.00
2018-04-13T11:44:55.204Z,11136.00
2018-04-13T11:45:55.202Z,10624.00
2018-04-13T11:46:55.206Z,10212.00
2018-04-13T11:47:55.224Z,9900.00
2018-04-13T11:48:55.219Z,9564.00
2018-04-13T11:49:55.146Z,9236.00
2018-04-13T11:50:55.198Z,9008.00
2018-04-13T11:51:55.139Z,8876.00
2018-04-13T11:52:55.118Z,8720.00
2018-04-13T11:53:55.106Z,8476.00
2018-04-13T11:54:55.090Z,8296.00
2018-04-13T11:55:55.079Z,8180.00
2018-04-13T11:56:55.060Z,7976.00
2018-04-13T11:57:55.069Z,7748.00
2018-04-13T11:58:55.162Z,7464.00
2018-04-13T11:59:55.086Z,7156.00
2018-04-13T12:00:55.028Z,6852.00
2018-04-13T12:01:55.030Z,6516.00
2018-04-13T12:02:55.004Z,6172.00
2018-04-13T12:03:55.023Z,5812.00
2018-04-13T12:04:55.003Z,5400.00
2018-04-13T12:05:55.016Z,5000.00
2018-04-13T12:06:55.009Z,4624.00
2018-04-13T12:07:54.963Z,4320.00
2018-04-13T12:08:54.937Z,4096.00
2018-04-13T12:09:54.941Z,3940.00
2018-04-13T12:10:54.968Z,3844.00
2018-04-13T12:11:54.926Z,3788.00
2018-04-13T12:12:54.942Z,3772.00
2018-04-13T12:13:54.880Z,3772.00
2018-04-13T12:14:54.969Z,3788.00
2018-04-13T12:15:54.879Z,3764.00
2018-04-13T12:16:54.889Z,3736.00
2018-04-13T12:17:54.834Z,3664.00
2018-04-13T12:18:54.847Z,3580.00
2018-04-13T12:19:54.808Z,3488.00
2018-04-13T12:20:54.828Z,3424.00
2018-04-13T12:21:54.811Z,3364.00
2018-04-13T12:22:54.780Z,3356.00
2018-04-13T12:23:54.759Z,3368.00